Time;durP1;ratioP1;P1;durP2;ratioP2;P2;SDS_P1;SDS_P2;PMS_P1;PMS_P2;Temp;Humidity;BMP_temperature;BMP_pressure;BME280_temperature;BME280_humidity;BME280_pressure;Samples;Min_cycle;Max_cycle;Signal;HPM_P1;HPM_P2
2023/07/19 00:01:28;;;;;;;7.43;6.22;;;;;;;26.09;100.00;100540.44;5050537;28;20052;-70
2023/07/19 00:03:54;;;;;;;7.88;6.43;;;;;;;25.61;100.00;100527.88;5054722;28;20033;-70
2023/07/19 00:06:19;;;;;;;11.23;7.45;;;;;;;25.30;100.00;100535.63;5054959;28;20021;-70
2023/07/19 00:08:45;;;;;;;9.30;7.63;;;;;;;25.08;100.00;100505.28;5054827;28;20025;-72
2023/07/19 00:11:10;;;;;;;11.10;7.88;;;;;;;24.94;100.00;100515.97;5054464;28;20461;-72
2023/07/19 00:13:35;;;;;;;8.77;7.75;;;;;;;24.70;100.00;100523.88;5053466;28;20029;-70
2023/07/19 00:16:01;;;;;;;14.15;7.72;;;;;;;25.01;100.00;100545.78;5054548;28;20052;-70
2023/07/19 00:18:26;;;;;;;10.70;7.70;;;;;;;25.25;100.00;100585.50;5054437;28;20082;-70
2023/07/19 00:24:13;;;;;;;11.57;7.65;;;;;;;24.87;100.00;100574.66;5054790;28;20085;-72
2023/07/19 00:26:39;;;;;;;8.10;7.32;;;;;;;25.09;100.00;100553.81;5054097;28;20479;-71
2023/07/19 00:29:04;;;;;;;10.20;7.25;;;;;;;25.28;100.00;100610.44;5053379;28;20134;-71
2023/07/19 00:31:29;;;;;;;11.88;7.97;;;;;;;25.03;100.00;100602.91;5054475;28;20032;-71
2023/07/19 00:33:55;;;;;;;12.77;7.30;;;;;;;24.93;100.00;100555.97;5054772;28;20025;-72
2023/07/19 00:36:20;;;;;;;10.07;7.25;;;;;;;25.44;100.00;100605.72;5052447;28;20517;-70
2023/07/19 00:38:46;;;;;;;7.93;6.70;;;;;;;25.02;100.00;100627.28;5054689;28;20025;-70
2023/07/19 00:41:12;;;;;;;10.82;7.60;;;;;;;25.12;100.00;100639.47;5054764;28;20028;-71
2023/07/19 00:43:37;;;;;;;9.88;7.78;;;;;;;24.65;100.00;100546.00;5054060;28;20505;-70
2023/07/19 00:49:24;;;;;;;7.88;6.95;;;;;;;25.09;100.00;100644.91;5054256;28;20399;-70
2023/07/19 00:55:12;;;;;;;9.48;7.28;;;;;;;24.65;100.00;100540.78;5054369;28;20545;-70
2023/07/19 01:00:59;;;;;;;11.55;7.00;;;;;;;24.50;100.00;100560.19;5054109;28;20059;-70
2023/07/19 01:03:24;;;;;;;10.13;7.47;;;;;;;24.60;100.00;100650.38;5054164;28;20051;-70
2023/07/19 01:05:50;;;;;;;10.85;7.88;;;;;;;24.22;100.00;100695.78;5053567;28;20025;-72
2023/07/19 01:08:18;;;;;;;11.65;8.65;;;;;;;24.61;100.00;100718.84;5053873;28;20056;-72
2023/07/19 01:10:43;;;;;;;11.38;8.55;;;;;;;24.51;100.00;100663.25;5053760;28;20481;-70
2023/07/19 01:13:10;;;;;;;12.32;9.32;;;;;;;24.12;100.00;100705.19;5053398;28;20021;-69
2023/07/19 01:15:36;;;;;;;14.15;9.85;;;;;;;24.28;100.00;100736.94;5053487;28;20029;-70
2023/07/19 01:18:02;;;;;;;12.88;9.50;;;;;;;24.14;100.00;100721.50;5053272;28;20016;-70
2023/07/19 01:20:28;;;;;;;15.80;9.43;;;;;;;23.59;100.00;100706.38;5053078;28;20021;-70
2023/07/19 01:26:15;;;;;;;9.35;8.13;;;;;;;23.21;100.00;100797.25;5053735;28;20077;-69
2023/07/19 01:32:02;;;;;;;11.63;8.60;;;;;;;23.56;100.00;100745.53;5053425;28;20028;-69
2023/07/19 01:34:27;;;;;;;10.00;7.88;;;;;;;23.36;100.00;100728.75;5052425;28;20045;-69
2023/07/19 01:36:53;;;;;;;8.48;7.30;;;;;;;23.74;100.00;100778.03;5057844;28;20027;-69
2023/07/19 01:39:18;;;;;;;8.65;6.85;;;;;;;23.70;100.00;100750.59;5063755;28;20028;-70
2023/07/19 01:45:05;;;;;;;8.00;6.03;;;;;;;23.02;100.00;100743.13;5053168;28;20171;-71
2023/07/19 01:47:31;;;;;;;7.47;6.03;;;;;;;23.63;100.00;100807.31;5051650;28;20062;-69
2023/07/19 01:49:56;;;;;;;7.50;5.95;;;;;;;23.35;100.00;100742.66;5052629;28;20029;-69
2023/07/19 01:52:22;;;;;;;7.05;6.22;;;;;;;23.46;100.00;100737.56;5051735;28;20468;-70
2023/07/19 01:58:09;;;;;;;9.18;5.95;;;;;;;23.50;100.00;100726.03;5053103;28;20098;-72
2023/07/19 02:00:35;;;;;;;7.15;5.97;;;;;;;23.51;100.00;100778.78;5052077;28;20041;-69
2023/07/19 02:06:22;;;;;;;8.35;6.07;;;;;;;23.44;100.00;100775.78;5052998;28;20035;-70
2023/07/19 02:12:09;;;;;;;7.30;6.00;;;;;;;23.40;100.00;100721.56;5052884;28;20043;-69
2023/07/19 02:17:56;;;;;;;8.38;6.05;;;;;;;23.66;100.00;100736.16;5052787;28;20048;-71
2023/07/19 02:20:22;;;;;;;9.57;6.28;;;;;;;23.36;100.00;100701.94;5052148;28;20036;-73
2023/07/19 02:22:48;;;;;;;8.57;6.88;;;;;;;23.60;100.00;100723.59;5050895;28;20147;-70
2023/07/19 02:25:13;;;;;;;9.73;6.38;;;;;;;23.41;100.00;100703.31;5050899;28;20052;-69
2023/07/19 02:31:00;;;;;;;7.05;6.35;;;;;;;23.78;100.00;100751.72;5052658;28;20048;-71
2023/07/19 02:33:25;;;;;;;7.65;6.25;;;;;;;23.46;100.00;100749.69;5051860;28;20475;-71
2023/07/19 02:35:54;;;;;;;9.43;5.80;;;;;;;23.67;100.00;100764.63;5052248;28;20017;-71
2023/07/19 02:38:24;;;;;;;9.52;6.07;;;;;;;23.36;100.00;100704.53;5052638;28;20032;-71
2023/07/19 02:44:10;;;;;;;13.38;7.80;;;;;;;23.21;100.00;100721.97;5052396;28;20494;-71
2023/07/19 02:49:57;;;;;;;12.80;7.43;;;;;;;22.97;100.00;100739.19;5052307;28;20048;-71
2023/07/19 02:55:45;;;;;;;12.20;7.90;;;;;;;22.48;100.00;100743.34;5052251;28;20559;-71
2023/07/19 02:58:11;;;;;;;16.88;8.00;;;;;;;22.37;100.00;100738.84;5051867;28;20021;-72
2023/07/19 03:00:41;;;;;;;16.48;8.77;;;;;;;22.61;100.00;100762.38;5051570;28;20063;-71
2023/07/19 03:06:28;;;;;;;18.00;9.73;;;;;;;22.84;100.00;100780.69;5051886;28;20082;-70
2023/07/19 03:08:54;;;;;;;16.55;8.65;;;;;;;23.37;100.00;100849.84;5051918;28;20029;-70
2023/07/19 03:11:19;;;;;;;10.32;8.20;;;;;;;23.13;100.00;100838.44;5050730;28;20021;-71
2023/07/19 03:13:45;;;;;;;13.55;7.80;;;;;;;22.98;100.00;100806.53;5056323;28;20021;-71
2023/07/19 03:19:33;;;;;;;12.30;8.18;;;;;;;22.20;100.00;100860.88;5056118;28;20195;-71
2023/07/19 03:25:19;;;;;;;10.88;8.77;;;;;;;23.33;100.00;100949.63;5055792;28;20032;-70
2023/07/19 03:31:11;;;;;;;14.57;8.88;;;;;;;23.00;100.00;100938.75;5055937;28;20465;-70
2023/07/19 03:33:36;;;;;;;12.75;8.73;;;;;;;22.99;100.00;100948.31;5055506;28;20456;-71
2023/07/19 03:36:02;;;;;;;13.48;8.52;;;;;;;23.34;100.00;100985.00;5053967;28;20032;-72
2023/07/19 03:38:27;;;;;;;12.10;9.07;;;;;;;23.09;100.00;100907.88;5056027;28;20021;-70
2023/07/19 03:40:53;;;;;;;12.98;8.57;;;;;;;23.20;100.00;100954.72;5055375;28;20024;-71
2023/07/19 03:43:18;;;;;;;12.20;8.82;;;;;;;22.78;100.00;100915.94;5055604;28;20112;-74
2023/07/19 03:45:44;;;;;;;10.15;8.70;;;;;;;22.93;100.00;100911.56;5055322;28;20033;-72
2023/07/19 03:48:09;;;;;;;12.10;8.95;;;;;;;22.83;100.00;100900.09;5054753;28;20103;-75
2023/07/19 03:50:36;;;;;;;17.15;9.60;;;;;;;22.86;100.00;100931.84;5055531;28;20025;-74
2023/07/19 03:53:01;;;;;;;12.18;9.27;;;;;;;23.19;100.00;100966.03;5055636;28;20032;-73
2023/07/19 03:55:27;;;;;;;12.80;9.05;;;;;;;22.93;100.00;100909.81;5055603;28;20021;-71
2023/07/19 04:04:42;;;;;;;11.23;8.45;;;;;;;23.01;100.00;100953.41;5047259;28;20048;-73
2023/07/19 04:07:07;;;;;;;15.35;8.73;;;;;;;23.58;100.00;100952.25;5054987;28;20041;-73
2023/07/19 04:12:54;;;;;;;14.27;8.95;;;;;;;23.40;100.00;100924.06;5055445;28;20471;-73
2023/07/19 04:15:19;;;;;;;14.85;9.05;;;;;;;23.52;100.00;100973.44;5052827;28;20119;-72
2023/07/19 04:17:45;;;;;;;12.02;8.05;;;;;;;23.75;100.00;100951.16;5053075;28;20039;-73
2023/07/19 04:20:10;;;;;;;15.45;8.20;;;;;;;23.35;100.00;100885.44;5053818;28;20035;-72
2023/07/19 04:25:59;;;;;;;13.50;8.63;;;;;;;23.36;100.00;100845.56;5054741;28;20085;-75
2023/07/19 04:31:47;;;;;;;13.48;7.22;;;;;;;23.68;100.00;100909.16;5055050;28;20040;-71
2023/07/19 04:37:34;;;;;;;10.82;7.47;;;;;;;23.99;100.00;100900.94;5054865;28;20056;-72
2023/07/19 04:43:21;;;;;;;12.00;7.35;;;;;;;25.69;100.00;100907.69;5054591;28;20086;-66
2023/07/19 04:45:46;;;;;;;13.50;6.25;;;;;;;24.97;100.00;100842.81;5053789;28;20446;-74
2023/07/19 04:48:12;;;;;;;20.00;6.88;;;;;;;24.85;100.00;100798.56;5054447;28;20025;-67
2023/07/19 04:50:37;;;;;;;11.77;7.30;;;;;;;24.72;100.00;100773.53;5054240;28;20025;-69
2023/07/19 04:53:03;;;;;;;8.35;6.68;;;;;;;25.11;100.00;100799.22;5053743;28;20040;-69
2023/07/19 04:55:28;;;;;;;9.18;6.72;;;;;;;25.60;100.00;100799.78;5054195;28;20464;-69
2023/07/19 04:57:53;;;;;;;10.00;6.32;;;;;;;25.36;100.00;100779.94;5054198;28;20519;-69
2023/07/19 05:03:40;;;;;;;9.77;5.78;;;;;;;25.51;100.00;100719.72;5074699;28;20039;-70
2023/07/19 05:09:28;;;;;;;11.93;5.38;;;;;;;25.92;100.00;100663.50;5054186;28;20028;-69
2023/07/19 05:15:15;;;;;;;9.50;5.50;;;;;;;26.35;100.00;100659.06;5053938;28;20079;-71
2023/07/19 05:17:40;;;;;;;7.68;5.40;;;;;;;26.88;100.00;100663.28;5053344;28;20021;-69
2023/07/19 05:20:07;;;;;;;12.38;5.65;;;;;;;26.61;100.00;100632.47;5053639;28;20017;-70
2023/07/19 05:22:33;;;;;;;7.90;5.32;;;;;;;26.87;100.00;100614.66;5052940;28;20033;-71
2023/07/19 05:28:20;;;;;;;8.43;5.38;;;;;;;27.08;100.00;100538.84;5053648;28;20035;-69
2023/07/19 05:30:46;;;;;;;11.65;5.50;;;;;;;27.26;100.00;100582.47;5053325;28;20083;-71
2023/07/19 05:33:11;;;;;;;7.53;5.20;;;;;;;27.52;100.00;100561.91;5053305;28;20472;-69
2023/07/19 05:35:37;;;;;;;10.82;5.13;;;;;;;27.63;100.00;100547.88;5052716;28;20025;-69
2023/07/19 05:41:24;;;;;;;;;;;;;;;28.08;100.00;100513.19;5054149;28;20043;-69
2023/07/19 05:43:49;;;;;;;6.50;4.90;;;;;;;28.30;100.00;100504.19;5053189;28;19908;-69
2023/07/19 05:46:15;;;;;;;13.13;4.72;;;;;;;28.53;100.00;100505.44;5051726;28;20382;-69
2023/07/19 05:48:40;;;;;;;9.82;5.00;;;;;;;28.17;100.00;100422.56;5051766;28;20391;-69
2023/07/19 05:51:06;;;;;;;7.45;5.28;;;;;;;28.67;100.00;100489.28;5052946;28;20154;-70
2023/07/19 05:53:33;;;;;;;10.27;4.93;;;;;;;28.50;100.00;100461.25;5052660;28;20418;-70
2023/07/19 05:55:58;;;;;;;12.27;5.43;;;;;;;28.90;100.00;100434.72;5053146;28;20025;-70
2023/07/19 06:01:45;;;;;;;;;;;;;;;29.66;100.00;100464.72;5053487;28;20040;-71
2023/07/19 06:04:13;;;;;;;9.70;4.85;;;;;;;29.81;100.00;100443.06;5052217;28;19916;-72
2023/07/19 06:06:38;;;;;;;8.52;5.57;;;;;;;29.89;100.00;100471.97;5052880;28;20032;-71
2023/07/19 06:12:25;;;;;;;;;;;;;;;30.33;100.00;100471.91;5053279;28;20036;-70
2023/07/19 06:14:50;;;;;;;9.33;6.00;;;;;;;30.66;100.00;100463.97;5052804;28;20278;-70
2023/07/19 06:17:16;;;;;;;8.73;5.75;;;;;;;30.61;100.00;100450.53;5052614;28;20028;-71
2023/07/19 06:19:42;;;;;;;7.38;5.55;;;;;;;30.89;100.00;100416.97;5052508;28;20493;-72
2023/07/19 06:22:07;;;;;;;11.13;6.30;;;;;;;30.26;100.00;100415.75;5050662;28;20075;-72
2023/07/19 06:24:32;;;;;;;8.43;6.03;;;;;;;30.85;100.00;100446.34;5050918;28;20123;-73
2023/07/19 06:26:58;;;;;;;9.38;6.55;;;;;;;30.95;100.00;100407.59;5052637;28;20098;-71
2023/07/19 06:32:44;;;;;;;9.25;7.07;;;;;;;31.23;100.00;100443.09;5052551;28;20043;-71
2023/07/19 06:35:10;;;;;;;13.63;6.90;;;;;;;31.57;100.00;100428.00;5051714;28;20033;-71
2023/07/19 06:37:36;;;;;;;10.52;6.60;;;;;;;31.06;100.00;100394.16;5050885;28;20056;-71
2023/07/19 06:40:04;;;;;;;11.23;7.05;;;;;;;31.63;100.00;100439.66;5050662;28;20027;-71
2023/07/19 06:45:51;;;;;;;11.50;7.00;;;;;;;31.27;100.00;100395.31;5051864;28;20040;-71
2023/07/19 06:48:17;;;;;;;11.38;7.32;;;;;;;31.60;100.00;100391.66;5051577;28;20476;-71
2023/07/19 06:50:42;;;;;;;11.98;6.65;;;;;;;31.77;100.00;100360.06;5051942;28;20116;-71
2023/07/19 06:53:07;;;;;;;10.10;7.00;;;;;;;32.37;100.00;100440.94;5051626;28;20040;-71
2023/07/19 06:58:55;;;;;;;9.82;6.72;;;;;;;31.91;100.00;100427.78;5052393;28;20106;-71
2023/07/19 07:01:20;;;;;;;12.32;6.90;;;;;;;31.87;100.00;100408.03;5052033;28;20468;-71
2023/07/19 07:03:45;;;;;;;12.10;6.97;;;;;;;32.02;100.00;100365.09;5051544;28;20120;-70
2023/07/19 07:06:11;;;;;;;9.95;7.03;;;;;;;32.83;100.00;100427.88;5050464;28;20123;-70
2023/07/19 07:11:58;;;;;;;11.80;6.95;;;;;;;32.83;100.00;100380.44;5051773;28;20081;-71
2023/07/19 07:14:24;;;;;;;10.98;6.70;;;;;;;33.15;100.00;100417.97;5050427;28;20116;-71
2023/07/19 07:16:49;;;;;;;8.10;6.60;;;;;;;33.20;100.00;100422.69;5050480;28;20118;-69
2023/07/19 07:22:36;;;;;;;10.35;6.85;;;;;;;32.88;100.00;100370.22;5052193;28;20036;-71
2023/07/19 07:25:02;;;;;;;11.70;7.15;;;;;;;33.15;100.00;100411.88;5051160;28;20029;-69
2023/07/19 07:27:30;;;;;;;9.25;6.78;;;;;;;33.55;100.00;100410.72;5052311;28;20029;-70
2023/07/19 07:29:55;;;;;;;7.63;6.57;;;;;;;33.72;100.00;100375.22;5050194;28;20025;-70
2023/07/19 07:35:43;;;;;;;11.00;6.93;;;;;;;32.97;100.00;100346.28;5051662;28;20090;-70
2023/07/19 07:38:09;;;;;;;9.35;6.60;;;;;;;33.35;100.00;100359.44;5052875;28;20025;-70
2023/07/19 07:40:34;;;;;;;7.22;6.53;;;;;;;33.50;100.00;100324.19;5051827;28;20021;-71
2023/07/19 07:43:00;;;;;;;10.05;7.00;;;;;;;33.90;100.00;100355.38;5049999;28;20032;-71
2023/07/19 07:48:47;;;;;;;9.68;5.95;;;;;;;33.31;100.00;100337.88;5051781;28;20032;-71
2023/07/19 07:51:12;;;;;;;8.73;6.40;;;;;;;34.45;100.00;100383.88;5051328;28;20145;-71
2023/07/19 07:53:38;;;;;;;8.48;6.25;;;;;;;34.36;100.00;100326.91;5051093;28;20095;-71
2023/07/19 07:56:03;;;;;;;6.47;5.88;;;;;;;34.31;100.00;100368.91;5050157;28;20465;-71
2023/07/19 07:58:29;;;;;;;6.45;5.80;;;;;;;33.62;100.00;100311.34;5051940;28;20082;-71
2023/07/19 08:00:54;;;;;;;7.13;6.07;;;;;;;34.94;100.00;100381.38;5055462;28;20074;-71
2023/07/19 08:03:20;;;;;;;8.75;5.50;;;;;;;35.22;100.00;100357.63;5087428;28;20057;-70
2023/07/19 08:05:45;;;;;;;6.78;5.18;;;;;;;35.16;100.00;100358.41;5055043;28;20193;-69
2023/07/19 08:08:12;;;;;;;9.55;5.53;;;;;;;34.74;100.00;100314.28;5055224;28;20037;-69
2023/07/19 08:10:39;;;;;;;8.07;5.70;;;;;;;35.73;100.00;100375.69;5054813;28;20040;-69
2023/07/19 08:13:07;;;;;;;7.30;5.75;;;;;;;35.43;100.00;100363.69;5054945;28;20506;-69
2023/07/19 08:15:33;;;;;;;8.90;6.35;;;;;;;35.17;100.00;100366.13;5053068;28;20029;-70
2023/07/19 08:17:59;;;;;;;7.90;5.45;;;;;;;34.53;100.00;100352.09;5054950;28;20032;-70
2023/07/19 08:20:25;;;;;;;6.50;5.03;;;;;;;35.15;100.00;100360.22;5054641;28;20021;-70
2023/07/19 08:22:51;;;;;;;7.95;5.90;;;;;;;34.74;100.00;100356.59;5054484;28;20032;-70
2023/07/19 08:25:19;;;;;;;7.35;5.47;;;;;;;35.03;100.00;100363.56;5057236;28;20029;-70
2023/07/19 08:27:44;;;;;;;6.47;5.60;;;;;;;35.20;100.00;100349.84;5063222;28;20119;-70
2023/07/19 08:33:31;;;;;;;9.25;5.65;;;;;;;34.77;100.00;100290.91;5054793;28;20112;-69
2023/07/19 08:35:56;;;;;;;8.43;6.10;;;;;;;35.48;100.00;100289.00;5054095;28;20119;-69
2023/07/19 08:38:22;;;;;;;7.88;5.30;;;;;;;36.18;100.00;100362.88;5054635;28;20115;-69
2023/07/19 08:41:00;;;;;;;8.15;5.32;;;;;;;35.75;100.00;100302.16;5054633;28;20017;-70
2023/07/19 08:46:49;;;;;;;7.47;5.57;;;;;;;35.55;100.00;100303.94;5054485;28;20028;-70
2023/07/19 08:49:17;;;;;;;6.50;5.45;;;;;;;36.23;100.00;100323.38;5053929;28;20021;-71
2023/07/19 08:51:44;;;;;;;6.75;5.00;;;;;;;35.29;100.00;100321.44;5054111;28;20021;-69
2023/07/19 08:54:10;;;;;;;5.60;5.10;;;;;;;35.62;100.00;100341.81;5052894;28;20399;-71
2023/07/19 08:56:36;;;;;;;6.53;5.47;;;;;;;35.86;100.00;100337.03;5053954;28;20033;-71
2023/07/19 08:59:03;;;;;;;8.45;5.35;;;;;;;35.65;100.00;100328.22;5054141;28;20028;-71
2023/07/19 09:01:28;;;;;;;7.05;5.50;;;;;;;36.47;100.00;100336.88;5052625;28;20542;-71
2023/07/19 09:07:22;;;;;;;5.97;5.22;;;;;;;35.87;100.00;100322.81;5043346;28;20053;-71
2023/07/19 09:09:54;;;;;;;7.18;5.18;;;;;;;36.51;100.00;100279.78;5051813;28;20036;-71
2023/07/19 09:12:19;;;;;;;6.70;5.28;;;;;;;36.39;100.00;100307.06;5053828;28;20028;-70
2023/07/19 09:14:45;;;;;;;6.90;5.13;;;;;;;36.74;100.00;100344.88;5053258;28;20028;-71
2023/07/19 09:17:11;;;;;;;6.50;5.00;;;;;;;37.05;100.00;100337.16;5053645;28;20112;-71
2023/07/19 09:19:41;;;;;;;7.18;5.40;;;;;;;36.83;100.00;100322.44;5053152;28;20116;-70
2023/07/19 09:22:07;;;;;;;7.73;5.40;;;;;;;36.71;100.00;100318.75;5054187;28;20025;-70
2023/07/19 09:24:33;;;;;;;6.85;5.38;;;;;;;37.23;100.00;100329.38;5053727;28;20232;-70
2023/07/19 09:27:00;;;;;;;7.45;5.32;;;;;;;37.93;100.00;100347.22;5053097;28;20534;-70
2023/07/19 09:29:30;;;;;;;5.43;4.90;;;;;;;37.09;100.00;100277.34;5053418;28;20040;-70
2023/07/19 09:32:00;;;;;;;5.30;4.80;;;;;;;36.82;100.00;100265.13;5053052;28;20025;-72
2023/07/19 09:34:27;;;;;;;5.50;4.90;;;;;;;37.10;100.00;100308.97;5053255;28;20029;-72
2023/07/19 09:40:13;;;;;;;6.50;4.82;;;;;;;36.47;100.00;100261.84;5053537;28;20521;-70
2023/07/19 09:42:41;;;;;;;7.50;4.63;;;;;;;36.93;100.00;100257.38;5051495;28;20115;-69
2023/07/19 09:45:07;;;;;;;7.00;5.43;;;;;;;37.95;100.00;100318.59;5052912;28;20057;-70
2023/07/19 09:51:01;;;;;;;6.03;5.10;;;;;;;36.80;100.00;100262.69;5053370;28;20100;-68
2023/07/19 09:56:48;;;;;;;6.50;5.25;;;;;;;37.63;100.00;100306.22;5052964;28;20035;-71
2023/07/19 09:59:17;;;;;;;6.40;5.15;;;;;;;37.86;100.00;100262.22;5052718;28;20025;-72
2023/07/19 10:01:43;;;;;;;5.45;4.95;;;;;;;37.14;100.00;100283.66;5051251;28;20036;-72
2023/07/19 10:04:25;;;;;;;5.63;5.10;;;;;;;37.34;100.00;100289.78;5052940;28;20029;-71
2023/07/19 10:07:02;;;;;;;6.50;5.10;;;;;;;37.58;100.00;100300.75;5051267;28;20047;-73
2023/07/19 10:09:29;;;;;;;9.13;5.20;;;;;;;37.96;100.00;100304.25;5051504;28;20079;-72
2023/07/19 10:12:00;;;;;;;5.75;5.15;;;;;;;36.88;100.00;100265.16;5052237;28;20407;-71
2023/07/19 10:14:27;;;;;;;8.48;4.90;;;;;;;37.13;100.00;100226.31;5052523;28;20067;-71
2023/07/19 10:16:58;;;;;;;8.82;4.88;;;;;;;36.96;100.00;100232.28;5052563;28;20395;-71
2023/07/19 10:19:24;;;;;;;8.02;4.60;;;;;;;36.97;100.00;100261.25;5052475;28;20037;-71
2023/07/19 10:22:06;;;;;;;7.65;5.18;;;;;;;37.08;100.00;100267.78;5050934;28;20033;-71
2023/07/19 10:24:36;;;;;;;6.65;5.05;;;;;;;37.46;100.00;100249.31;5050706;28;20025;-70
2023/07/19 10:27:07;;;;;;;6.80;5.38;;;;;;;36.87;100.00;100213.09;5052358;28;20112;-71
2023/07/19 10:29:43;;;;;;;6.50;4.95;;;;;;;36.97;100.00;100191.44;5052403;28;20044;-71
2023/07/19 10:32:08;;;;;;;7.70;5.13;;;;;;;38.02;100.00;100260.91;5084623;28;20033;-72
2023/07/19 10:34:36;;;;;;;6.25;5.25;;;;;;;38.42;100.00;100272.94;5052786;28;20039;-72
2023/07/19 10:40:23;;;;;;;6.80;5.15;;;;;;;37.57;100.00;100252.13;5052499;28;20119;-71
2023/07/19 10:42:48;;;;;;;6.88;5.45;;;;;;;38.49;100.00;100260.41;5052194;28;20099;-71
2023/07/19 10:45:15;;;;;;;7.28;5.43;;;;;;;37.51;100.00;100209.66;5052109;28;20128;-71
2023/07/19 10:47:40;;;;;;;5.88;5.38;;;;;;;37.85;100.00;100244.66;5052261;28;20032;-71
2023/07/19 10:53:27;;;;;;;5.75;5.20;;;;;;;37.54;100.00;100211.91;5052278;28;20036;-73
2023/07/19 10:55:57;;;;;;;6.85;5.40;;;;;;;38.12;100.00;100235.50;5052091;28;20033;-72
2023/07/19 10:58:24;;;;;;;12.63;5.45;;;;;;;38.41;100.00;100209.34;5052066;28;20032;-73
2023/07/19 11:04:11;;;;;;;9.65;5.95;;;;;;;38.30;100.00;100232.13;5052198;28;20078;-72
2023/07/19 11:06:39;;;;;;;8.68;5.38;;;;;;;37.44;100.00;100206.25;5051688;28;20048;-72
2023/07/19 11:09:06;;;;;;;7.82;5.35;;;;;;;37.33;100.00;100203.22;5051863;28;20037;-71
2023/07/19 11:11:37;;;;;;;6.15;5.25;;;;;;;37.66;100.00;100224.28;5051455;28;20499;-71
2023/07/19 11:14:03;;;;;;;6.97;5.38;;;;;;;38.14;100.00;100233.44;5051781;28;20044;-71
2023/07/19 11:16:29;;;;;;;5.60;5.10;;;;;;;38.42;100.00;100224.25;5052282;28;20063;-72
2023/07/19 11:18:55;;;;;;;6.35;4.82;;;;;;;38.90;100.00;100241.25;5051727;28;20559;-71
2023/07/19 11:21:28;;;;;;;6.63;5.25;;;;;;;38.33;100.00;100204.31;5051826;28;20399;-71
2023/07/19 11:23:54;;;;;;;5.80;5.00;;;;;;;38.71;100.00;100199.66;5050612;28;20075;-72
2023/07/19 11:26:20;;;;;;;7.32;5.03;;;;;;;38.22;100.00;100210.31;5051549;28;20053;-71
2023/07/19 11:29:06;;;;;;;7.20;5.30;;;;;;;38.15;100.00;100208.47;5050278;28;20029;-71
2023/07/19 11:31:38;;;;;;;5.88;5.28;;;;;;;37.75;100.00;100198.31;5052193;28;20079;-71
2023/07/19 11:37:27;;;;;;;12.02;5.50;;;;;;;38.90;100.00;100182.69;5055933;28;20036;-72
2023/07/19 11:39:54;;;;;;;8.43;5.40;;;;;;;38.18;100.00;100154.91;5055641;28;20021;-72
2023/07/19 11:42:45;;;;;;;7.65;5.47;;;;;;;38.68;100.00;100206.25;5054279;28;20086;-71
2023/07/19 11:45:14;;;;;;;12.02;5.53;;;;;;;38.75;100.00;100179.56;5055499;28;20069;-71
2023/07/19 11:47:41;;;;;;;6.10;5.38;;;;;;;38.88;100.00;100168.81;5055869;28;20029;-71
2023/07/19 11:50:08;;;;;;;6.93;5.28;;;;;;;38.48;100.00;100152.41;5055873;28;20382;-72
2023/07/19 11:52:43;;;;;;;7.82;5.03;;;;;;;38.98;100.00;100214.34;5054328;28;20028;-72
2023/07/19 11:55:11;;;;;;;6.97;4.97;;;;;;;37.82;100.00;100133.50;5055754;28;20027;-71
2023/07/19 11:57:37;;;;;;;7.10;5.05;;;;;;;37.84;100.00;100120.00;5068353;28;20023;-70
2023/07/19 12:00:03;;;;;;;8.63;4.93;;;;;;;37.29;100.00;100122.34;5061540;28;20021;-71
2023/07/19 12:02:28;;;;;;;5.82;5.13;;;;;;;37.99;100.00;100163.81;5054722;28;20475;-71
2023/07/19 12:04:54;;;;;;;8.52;5.25;;;;;;;37.41;100.00;100148.25;5054645;28;20087;-71
2023/07/19 12:07:19;;;;;;;7.15;5.32;;;;;;;38.59;100.00;100180.13;5055001;28;20161;-71
2023/07/19 12:09:45;;;;;;;6.72;5.28;;;;;;;37.92;100.00;100117.09;5055034;28;20029;-72
2023/07/19 12:12:10;;;;;;;6.38;5.10;;;;;;;37.61;98.79;100075.41;5054707;28;20032;-71
2023/07/19 12:14:36;;;;;;;6.53;4.95;;;;;;;38.20;100.00;100162.66;5055153;28;20021;-71
2023/07/19 12:17:04;;;;;;;6.10;4.90;;;;;;;38.44;100.00;100153.06;5054484;28;20119;-71
2023/07/19 12:19:29;;;;;;;5.70;5.10;;;;;;;38.74;95.79;100149.53;5054907;28;20050;-71
2023/07/19 12:25:17;;;;;;;6.50;5.10;;;;;;;37.90;100.00;100103.19;5054803;28;20410;-73
2023/07/19 12:31:04;;;;;;;5.75;5.25;;;;;;;38.28;93.86;100073.88;5055155;28;20462;-72
2023/07/19 12:33:30;;;;;;;7.05;5.30;;;;;;;38.27;93.05;100101.50;5054842;28;20056;-72
2023/07/19 12:35:55;;;;;;;7.15;5.00;;;;;;;39.38;92.06;100148.16;5054856;28;20116;-72
2023/07/19 12:38:21;;;;;;;6.25;5.10;;;;;;;38.50;92.47;100083.03;5054161;28;20032;-72
2023/07/19 12:44:08;;;;;;;5.15;4.65;;;;;;;39.54;92.63;100126.25;5054218;28;20457;-72
2023/07/19 12:49:55;;;;;;;7.57;5.63;;;;;;;39.08;88.15;100102.84;5054298;28;20472;-71
2023/07/19 12:52:20;;;;;;;6.55;5.35;;;;;;;39.02;86.78;100109.88;5054102;28;20115;-71
2023/07/19 12:54:46;;;;;;;6.15;5.55;;;;;;;39.39;88.63;100118.63;5054645;28;20029;-71
2023/07/19 12:57:12;;;;;;;5.88;5.15;;;;;;;38.95;88.12;100103.81;5054028;28;20021;-71
2023/07/19 12:59:37;;;;;;;5.75;5.07;;;;;;;39.02;87.84;100120.50;5052491;28;20025;-72
2023/07/19 13:02:04;;;;;;;7.43;5.00;;;;;;;38.99;90.39;100115.66;5053577;28;20037;-71
2023/07/19 13:04:30;;;;;;;8.60;5.45;;;;;;;38.71;93.15;100109.22;5053482;28;20037;-71
2023/07/19 13:06:57;;;;;;;8.23;5.50;;;;;;;39.63;88.25;100108.88;5053880;28;20480;-72
2023/07/19 13:09:23;;;;;;;5.43;4.93;;;;;;;38.33;86.38;100047.44;5053837;28;20430;-72
2023/07/19 13:11:49;;;;;;;6.53;5.47;;;;;;;39.14;86.32;100102.00;5054108;28;20017;-72
2023/07/19 13:17:36;;;;;;;6.60;5.43;;;;;;;38.51;83.78;100012.88;5053959;28;20095;-72
2023/07/19 13:20:08;;;;;;;6.45;5.60;;;;;;;38.79;84.53;100087.66;5053378;28;20029;-72
2023/07/19 13:22:33;;;;;;;6.43;5.63;;;;;;;37.77;88.23;100031.59;5053681;28;20025;-72
2023/07/19 13:24:58;;;;;;;5.90;5.30;;;;;;;38.54;92.69;100055.81;5053547;28;20052;-73
2023/07/19 13:27:24;;;;;;;8.75;5.40;;;;;;;38.83;89.43;100079.00;5053597;28;20439;-72
2023/07/19 13:29:50;;;;;;;6.03;5.38;;;;;;;38.29;86.21;100023.16;5053823;28;20518;-73
2023/07/19 13:32:15;;;;;;;6.10;5.50;;;;;;;38.27;84.29;100025.22;5053444;28;20111;-70
2023/07/19 13:34:41;;;;;;;7.07;5.75;;;;;;;38.92;87.57;100080.34;5053123;28;20391;-73
2023/07/19 13:37:07;;;;;;;6.57;5.13;;;;;;;39.18;86.50;100038.47;5053537;28;20119;-73
2023/07/19 13:39:33;;;;;;;7.30;5.63;;;;;;;39.22;87.62;100052.94;5053165;28;20416;-70
2023/07/19 13:41:58;;;;;;;5.95;5.35;;;;;;;39.08;87.26;100083.41;5053043;28;20029;-73
2023/07/19 13:44:24;;;;;;;6.70;5.40;;;;;;;38.56;90.66;100072.34;5053013;28;20486;-70
2023/07/19 13:46:49;;;;;;;7.07;5.53;;;;;;;37.81;89.05;99999.09;5053168;28;20017;-71
2023/07/19 13:49:15;;;;;;;8.45;5.85;;;;;;;39.09;89.81;100080.53;5051608;28;20035;-70
2023/07/19 13:55:02;;;;;;;7.10;5.57;;;;;;;39.26;88.44;100080.72;5052706;28;20036;-72
2023/07/19 13:57:28;;;;;;;6.40;5.80;;;;;;;38.83;86.69;100062.22;5050739;28;20025;-71
2023/07/19 13:59:55;;;;;;;6.93;6.00;;;;;;;38.33;82.82;100039.47;5052952;28;20529;-73
2023/07/19 14:02:21;;;;;;;6.55;5.80;;;;;;;39.11;86.40;100069.66;5053096;28;20021;-72
2023/07/19 14:04:48;;;;;;;7.00;6.30;;;;;;;38.87;82.57;100004.88;5052511;28;20033;-71
2023/07/19 14:07:13;;;;;;;6.70;6.00;;;;;;;38.73;82.73;100000.75;5051362;28;20044;-71
2023/07/19 14:09:39;;;;;;;6.18;5.57;;;;;;;38.57;83.04;100010.13;5053064;28;20414;-72
2023/07/19 14:15:26;;;;;;;7.72;5.55;;;;;;;37.50;84.28;99983.16;5052805;28;20074;-73
2023/07/19 14:17:51;;;;;;;6.90;6.20;;;;;;;38.27;85.26;99993.34;5052542;28;20467;-73
2023/07/19 14:20:17;;;;;;;7.70;5.75;;;;;;;38.44;84.88;99996.19;5052699;28;20025;-73
2023/07/19 14:22:43;;;;;;;8.25;5.75;;;;;;;38.90;88.27;100058.47;5052758;28;20108;-73
2023/07/19 14:25:09;;;;;;;9.50;6.00;;;;;;;38.20;87.62;100009.31;5052681;28;20035;-73